Time;durP1;ratioP1;P1;durP2;ratioP2;P2;SDS_P1;SDS_P2;PMS_P1;PMS_P2;Temp;Humidity;BMP_temperature;BMP_pressure;BME280_temperature;BME280_humidity;BME280_pressure;Samples;Min_cycle;Max_cycle;Signal;HPM_P1;HPM_P2
2023/01/28 00:01:11;;;;;;;3.80;3.00;;;;;;;0.90;77.90;100210.06;5092251;28;20810;-44
2023/01/28 00:03:38;;;;;;;4.20;2.78;;;;;;;0.86;77.92;100205.75;5037749;28;20048;-44
2023/01/28 00:06:09;;;;;;;6.03;2.90;;;;;;;0.89;78.25;100212.63;5075858;28;20046;-42
2023/01/28 00:08:35;;;;;;;4.35;2.65;;;;;;;0.74;78.24;100178.31;5072865;28;20094;-44
2023/01/28 00:11:02;;;;;;;5.45;3.65;;;;;;;0.90;78.22;100204.09;5070252;28;20032;-43
2023/01/28 00:13:29;;;;;;;5.72;3.60;;;;;;;0.87;77.96;100201.50;5071430;28;20064;-44
2023/01/28 00:15:57;;;;;;;5.05;3.35;;;;;;;0.87;78.46;100206.63;5091773;28;20609;-44
2023/01/28 00:18:24;;;;;;;4.70;3.00;;;;;;;0.83;78.26;100204.03;5090405;28;20124;-44
2023/01/28 00:21:04;;;;;;;4.68;2.58;;;;;;;0.78;78.41;100205.69;5090394;28;20097;-46
2023/01/28 00:23:32;;;;;;;4.15;2.88;;;;;;;0.74;78.05;100211.56;5086827;28;20034;-43
2023/01/28 00:25:59;;;;;;;5.93;3.05;;;;;;;0.54;78.15;100176.31;5091576;28;20075;-42
2023/01/28 00:28:25;;;;;;;4.60;2.80;;;;;;;0.70;78.13;100209.81;5091727;28;20132;-43
2023/01/28 00:30:51;;;;;;;4.20;2.83;;;;;;;0.70;78.32;100216.63;5073560;28;20113;-46
2023/01/28 00:33:17;;;;;;;5.90;3.05;;;;;;;0.66;78.02;100210.63;5078205;28;20543;-43
2023/01/28 00:35:46;;;;;;;5.72;2.60;;;;;;;0.67;77.71;100220.03;5070130;28;20037;-43
2023/01/28 00:38:12;;;;;;;4.35;2.72;;;;;;;0.66;77.87;100212.31;5056263;28;20446;-44
2023/01/28 00:40:38;;;;;;;3.05;2.10;;;;;;;0.62;77.66;100211.44;5072874;28;20052;-46
2023/01/28 00:43:04;;;;;;;6.22;2.33;;;;;;;0.45;77.70;100191.53;5054020;28;20040;-42
2023/01/28 00:45:30;;;;;;;4.63;2.70;;;;;;;0.37;77.57;100184.63;5050375;28;20101;-44
2023/01/28 00:47:56;;;;;;;7.85;2.65;;;;;;;0.57;77.79;100212.19;5091309;28;20465;-45
2023/01/28 00:50:22;;;;;;;3.97;2.35;;;;;;;0.55;77.71;100221.53;5069567;28;20052;-43
2023/01/28 00:52:48;;;;;;;4.72;2.42;;;;;;;0.53;77.88;100215.53;5073066;28;20050;-45
2023/01/28 00:55:14;;;;;;;4.72;2.53;;;;;;;0.48;77.50;100215.47;5086542;28;20060;-44
2023/01/28 00:57:40;;;;;;;3.05;2.03;;;;;;;0.33;77.43;100197.34;5052862;28;20043;-43
2023/01/28 01:00:07;;;;;;;3.72;2.17;;;;;;;0.46;77.16;100216.28;5069604;28;20047;-41
2023/01/28 01:02:33;;;;;;;4.78;3.13;;;;;;;0.38;77.12;100214.47;5070742;28;20146;-45
2023/01/28 01:04:59;;;;;;;7.22;3.65;;;;;;;0.45;76.90;100217.13;5053261;28;20135;-42
2023/01/28 01:07:40;;;;;;;5.05;2.63;;;;;;;0.45;77.26;100220.53;5052599;28;20466;-44
2023/01/28 01:10:15;;;;;;;3.90;2.55;;;;;;;0.46;76.77;100222.28;5086297;28;20530;-45
2023/01/28 01:12:42;;;;;;;3.63;2.40;;;;;;;0.44;76.86;100223.94;5089370;28;20052;-43
2023/01/28 01:15:09;;;;;;;4.25;2.45;;;;;;;0.45;76.82;100225.66;5072397;28;20143;-45
2023/01/28 01:17:40;;;;;;;5.63;2.53;;;;;;;0.46;76.53;100223.97;5085645;28;20040;-46
2023/01/28 01:20:10;;;;;;;5.35;2.85;;;;;;;0.44;76.69;100226.50;5069298;28;20044;-44
2023/01/28 01:22:36;;;;;;;4.13;2.60;;;;;;;0.45;76.91;100229.91;5086117;28;20045;-44
2023/01/28 01:25:04;;;;;;;4.07;2.72;;;;;;;0.44;76.69;100223.94;5076595;28;20401;-44
2023/01/28 01:27:30;;;;;;;3.92;2.70;;;;;;;0.46;76.37;100232.50;5052334;28;20036;-44
2023/01/28 01:29:58;;;;;;;5.10;2.80;;;;;;;0.42;76.77;100228.16;5069066;28;20117;-44
2023/01/28 01:32:31;;;;;;;5.28;2.65;;;;;;;0.40;76.25;100232.41;5068815;28;20600;-44
2023/01/28 01:34:57;;;;;;;4.40;2.67;;;;;;;0.41;76.66;100223.91;5069605;28;20079;-43
2023/01/28 01:37:24;;;;;;;5.05;2.70;;;;;;;0.40;76.04;100223.03;5088939;28;20126;-44
2023/01/28 01:39:50;;;;;;;4.93;2.90;;;;;;;0.37;76.30;100224.66;5079899;28;20131;-45
2023/01/28 01:42:16;;;;;;;6.40;2.75;;;;;;;0.33;76.25;100218.66;5088924;28;20071;-45
2023/01/28 01:45:03;;;;;;;4.25;2.70;;;;;;;0.34;76.20;100217.81;5067681;28;20131;-44
2023/01/28 01:47:39;;;;;;;4.83;2.30;;;;;;;0.32;75.76;100218.63;5085078;28;20108;-45
2023/01/28 01:50:12;;;;;;;4.38;2.88;;;;;;;0.27;76.28;100216.00;5071881;28;20055;-45
2023/01/28 01:52:39;;;;;;;9.70;3.70;;;;;;;0.29;76.31;100211.78;5085236;28;20703;-43
2023/01/28 01:55:13;;;;;;;6.80;3.78;;;;;;;0.30;76.17;100223.75;5082635;28;20043;-44
2023/01/28 01:57:39;;;;;;;6.90;4.22;;;;;;;0.10;76.16;100185.91;5071981;28;20532;-45
2023/01/28 02:00:07;;;;;;;6.50;3.60;;;;;;;0.28;76.02;100215.16;5071796;28;20044;-44
2023/01/28 02:02:43;;;;;;;7.38;3.80;;;;;;;0.30;76.11;100223.75;5089997;28;20044;-41
2023/01/28 02:05:11;;;;;;;9.45;4.32;;;;;;;0.29;76.06;100216.03;5073380;28;20050;-43
2023/01/28 02:07:38;;;;;;;7.60;3.90;;;;;;;0.28;76.36;100221.97;5083879;28;20123;-44
2023/01/28 02:10:05;;;;;;;7.80;3.85;;;;;;;0.28;76.27;100222.84;5075442;28;20530;-43
2023/01/28 02:12:39;;;;;;;9.40;4.80;;;;;;;0.09;76.20;100186.75;5051571;28;20055;-42
2023/01/28 02:15:24;;;;;;;6.68;3.75;;;;;;;0.25;76.56;100219.38;5067973;28;20040;-41
2023/01/28 02:17:50;;;;;;;8.88;3.80;;;;;;;0.10;76.28;100193.59;5068049;28;20137;-42
2023/01/28 02:20:22;;;;;;;6.65;3.30;;;;;;;0.28;76.30;100224.53;5068007;28;20115;-45
2023/01/28 02:23:17;;;;;;;6.15;3.17;;;;;;;0.27;76.51;100222.81;5051428;28;20522;-45
2023/01/28 02:26:21;;;;;;;6.60;3.65;;;;;;;0.24;76.34;100222.78;5070180;28;20040;-44
2023/01/28 02:29:01;;;;;;;6.03;3.55;;;;;;;0.23;76.56;100228.72;5084696;28;20048;-43
2023/01/28 02:31:31;;;;;;;6.25;3.33;;;;;;;0.20;76.20;100228.69;5067903;28;20496;-43
2023/01/28 02:34:04;;;;;;;6.88;4.22;;;;;;;0.17;76.44;100232.03;5069842;28;20044;-42
2023/01/28 02:36:39;;;;;;;7.07;3.28;;;;;;;0.16;76.46;100226.94;5071004;28;20040;-42
2023/01/28 02:39:23;;;;;;;7.38;3.50;;;;;;;0.13;76.26;100230.28;5086795;28;20044;-41
2023/01/28 02:41:56;;;;;;;5.38;3.20;;;;;;;0.12;76.25;100233.66;5070162;28;20131;-42
2023/01/28 02:44:24;;;;;;;10.15;4.95;;;;;;;-0.07;76.55;100204.41;5071003;28;20044;-43
2023/01/28 02:49:40;;;;;;;11.35;6.20;;;;;;;0.13;76.79;100253.28;5083760;28;20086;-41
2023/01/28 02:55:42;;;;;;;5.30;3.17;;;;;;;0.11;76.57;100242.16;5053060;28;20040;-41
2023/01/28 02:58:27;;;;;;;;;;;;;;;0.07;76.51;100250.63;5088056;28;20169;-42
2023/01/28 03:01:07;;;;;;;11.35;4.72;;;;;;;0.06;76.20;100248.03;5088909;28;19922;-41
2023/01/28 03:03:55;;;;;;;8.88;4.72;;;;;;;0.08;76.35;100252.34;5070648;28;20044;-41
2023/01/28 03:06:26;;;;;;;7.82;3.72;;;;;;;0.07;76.48;100253.19;5068990;28;20126;-40
2023/01/28 03:37:08;;;;;;;5.82;2.30;;;;;;;-0.27;74.79;100223.63;5098689;28;20123;-40
2023/01/28 03:39:46;;;;;;;3.75;1.58;;;;;;;-0.13;74.27;100262.19;5050292;28;20053;-42
2023/01/28 03:42:13;;;;;;;3.40;2.00;;;;;;;-0.13;74.42;100254.53;5065211;28;20056;-41
2023/01/28 03:44:53;;;;;;;4.97;2.70;;;;;;;-0.32;74.44;100222.69;5071993;28;20095;-41
2023/01/28 03:47:28;;;;;;;3.83;2.20;;;;;;;-0.09;74.39;100256.31;5066903;28;20063;-41
2023/01/28 03:49:56;;;;;;;3.20;1.60;;;;;;;-0.16;74.36;100250.22;5068334;28;20083;-41
2023/01/28 03:52:25;;;;;;;2.67;1.80;;;;;;;-0.10;74.08;100260.53;5068314;28;20052;-42
2023/01/28 03:54:54;;;;;;;3.90;2.00;;;;;;;-0.10;73.95;100259.69;5050605;28;20040;-41
2023/01/28 03:57:23;;;;;;;3.38;1.90;;;;;;;-0.10;74.13;100257.13;5067845;28;20040;-43
2023/01/28 03:59:49;;;;;;;3.20;1.80;;;;;;;-0.09;73.80;100256.31;5083817;28;20051;-42
2023/01/28 04:02:16;;;;;;;4.30;1.50;;;;;;;-0.11;74.03;100258.00;5050551;28;20114;-42
2023/01/28 04:04:43;;;;;;;4.15;1.80;;;;;;;-0.11;73.96;100252.88;5050187;28;20109;-42
2023/01/28 04:07:13;;;;;;;3.20;1.92;;;;;;;-0.21;73.84;100240.78;5069697;28;20687;-41
2023/01/28 04:10:07;;;;;;;6.30;3.05;;;;;;;-0.17;73.76;100253.63;5054265;28;20522;-42
2023/01/28 04:12:53;;;;;;;3.47;2.38;;;;;;;-0.19;73.76;100255.28;5068874;28;20068;-43
2023/01/28 04:15:19;;;;;;;5.43;3.10;;;;;;;-0.20;74.00;100258.66;5083703;28;20032;-42
2023/01/28 04:17:48;;;;;;;3.85;2.72;;;;;;;-0.20;73.72;100260.34;5051947;28;20037;-43
2023/01/28 04:20:27;;;;;;;3.58;2.28;;;;;;;-0.22;73.91;100264.59;5070296;28;20051;-42
2023/01/28 04:22:56;;;;;;;2.92;1.75;;;;;;;-0.39;73.55;100235.31;5054025;28;20480;-43
2023/01/28 04:25:22;;;;;;;5.32;1.95;;;;;;;-0.28;73.54;100259.38;5053389;28;20036;-42
2023/01/28 04:27:48;;;;;;;3.15;1.92;;;;;;;-0.31;73.51;100256.75;5083153;28;20047;-42
2023/01/28 04:30:23;;;;;;;3.15;2.28;;;;;;;-0.29;73.49;100260.19;5073463;28;20043;-42
2023/01/28 04:33:07;;;;;;;3.40;2.03;;;;;;;-0.51;73.35;100229.16;5091615;28;20040;-41
2023/01/28 04:35:44;;;;;;;4.65;2.38;;;;;;;-0.34;73.04;100255.00;5090301;28;20040;-42
2023/01/28 04:38:19;;;;;;;2.30;1.40;;;;;;;-0.35;73.09;100265.19;5069970;28;20060;-42
2023/01/28 04:41:03;;;;;;;3.42;1.80;;;;;;;-0.36;73.11;100255.78;5071096;28;20144;-41
2023/01/28 04:43:32;;;;;;;2.35;1.40;;;;;;;-0.36;72.80;100266.88;5073862;28;20052;-42
2023/01/28 04:46:25;;;;;;;2.75;1.58;;;;;;;-0.50;73.23;100240.22;5088385;28;20043;-41
2023/01/28 04:49:02;;;;;;;4.07;2.13;;;;;;;-0.38;72.76;100263.47;5081774;28;20520;-42
2023/01/28 04:51:31;;;;;;;4.40;2.00;;;;;;;-0.40;72.84;100256.56;5069589;28;20074;-42
2023/01/28 04:54:15;;;;;;;3.53;1.65;;;;;;;-0.40;72.84;100266.78;5071029;28;20048;-43
2023/01/28 04:56:41;;;;;;;3.53;1.95;;;;;;;-0.47;72.81;100255.59;5072645;28;20050;-41
2023/01/28 04:59:08;;;;;;;5.05;2.20;;;;;;;-0.39;73.06;100276.19;5071883;28;20048;-43
2023/01/28 05:01:35;;;;;;;7.85;2.92;;;;;;;-0.38;72.88;100276.22;5069495;28;20036;-43
2023/01/28 05:04:04;;;;;;;5.63;3.30;;;;;;;-0.39;73.06;100284.72;5052511;28;20036;-42
2023/01/28 05:06:32;;;;;;;6.63;4.00;;;;;;;-0.40;72.78;100287.22;5070347;28;20055;-42
2023/01/28 05:09:05;;;;;;;7.18;3.25;;;;;;;-0.42;72.86;100275.28;5073836;28;20122;-42
2023/01/28 05:11:32;;;;;;;6.50;2.83;;;;;;;-0.43;72.92;100282.94;5089166;28;20048;-41
2023/01/28 05:14:02;;;;;;;5.65;2.42;;;;;;;-0.40;72.86;100287.22;5082580;28;20047;-42
2023/01/28 05:16:37;;;;;;;4.43;2.28;;;;;;;-0.43;72.36;100288.91;5072380;28;20028;-42
2023/01/28 05:19:03;;;;;;;2.95;1.90;;;;;;;-0.47;72.44;100281.13;5085785;28;20586;-42
2023/01/28 05:21:36;;;;;;;4.70;2.40;;;;;;;-0.46;72.60;100287.97;5052527;28;20045;-43
2023/01/28 05:24:06;;;;;;;6.78;3.90;;;;;;;-0.46;72.42;100281.19;5053247;28;20102;-41
2023/01/28 05:26:32;;;;;;;7.55;3.58;;;;;;;-0.44;72.72;100294.84;5085884;28;20052;-41
2023/01/28 05:28:59;;;;;;;10.50;4.10;;;;;;;-0.46;72.27;100291.38;5074583;28;20048;-41
2023/01/28 05:31:25;;;;;;;7.43;4.32;;;;;;;-0.64;72.65;100257.84;5068969;28;20434;-43
2023/01/28 05:33:51;;;;;;;7.43;3.45;;;;;;;-0.48;72.45;100293.06;5068879;28;20040;-41
2023/01/28 05:36:18;;;;;;;5.85;3.95;;;;;;;-0.48;72.80;100289.66;5068726;28;20041;-41
2023/01/28 05:38:44;;;;;;;10.65;6.35;;;;;;;-0.48;72.73;100287.97;5085513;28;20052;-41
2023/01/28 05:41:10;;;;;;;9.05;5.00;;;;;;;-0.48;72.46;100285.41;5052153;28;20044;-42
2023/01/28 05:43:36;;;;;;;6.03;3.85;;;;;;;-0.47;72.39;100289.66;5077580;28;20046;-41
2023/01/28 05:46:28;;;;;;;6.93;3.13;;;;;;;-0.48;72.13;100293.06;5059884;28;20597;-42
2023/01/28 05:49:11;;;;;;;;;;;;;;;-0.49;72.08;100288.78;5076333;28;20130;-41
2023/01/28 05:52:06;;;;;;;6.35;2.63;;;;;;;-0.52;72.20;100303.16;5085512;28;20489;-42
2023/01/28 05:54:32;;;;;;;5.40;2.60;;;;;;;-0.52;72.38;100305.72;5087226;28;20061;-40
2023/01/28 05:56:58;;;;;;;6.18;2.60;;;;;;;-0.85;72.54;100242.09;5081012;28;20036;-43
2023/01/28 05:59:25;;;;;;;4.90;2.65;;;;;;;-0.52;72.49;100296.38;5084507;28;20060;-43
2023/01/28 06:01:53;;;;;;;5.15;2.90;;;;;;;-0.54;72.34;100303.16;5068760;28;20052;-41
2023/01/28 06:04:20;;;;;;;5.20;2.83;;;;;;;-0.54;72.70;100305.72;5073914;28;20089;-41
2023/01/28 06:06:46;;;;;;;6.63;3.10;;;;;;;-0.56;72.68;100309.06;5088626;28;20060;-42
2023/01/28 06:09:11;;;;;;;6.10;3.28;;;;;;;-0.56;72.70;100309.91;5090064;28;20090;-42
2023/01/28 06:11:37;;;;;;;10.57;4.93;;;;;;;-0.56;72.97;100309.06;5090557;28;20488;-41
2023/01/28 06:14:04;;;;;;;5.55;3.28;;;;;;;-0.55;73.08;100309.09;5084400;28;20418;-40
2023/01/28 06:17:09;;;;;;;7.07;3.70;;;;;;;-0.58;72.78;100311.59;5042643;28;20041;-42
2023/01/28 06:20:00;;;;;;;9.10;3.97;;;;;;;-0.58;73.01;100306.50;5012544;28;20044;-41
2023/01/28 06:22:28;;;;;;;11.57;5.43;;;;;;;-0.55;72.61;100303.13;5033325;28;20083;-42
2023/01/28 06:24:54;;;;;;;12.48;6.05;;;;;;;-0.95;73.28;100242.75;5045797;28;20053;-41
2023/01/28 06:27:20;;;;;;;10.50;5.35;;;;;;;-0.56;73.75;100307.38;5028325;28;20040;-40
2023/01/28 06:29:46;;;;;;;10.02;5.55;;;;;;;-0.53;73.97;100306.59;5046823;28;20085;-42
2023/01/28 06:32:12;;;;;;;9.27;5.05;;;;;;;-0.50;74.12;100310.03;5046627;28;20084;-40
2023/01/28 06:34:38;;;;;;;9.98;4.68;;;;;;;-0.52;74.18;100309.13;5046122;28;20041;-41
2023/01/28 06:37:04;;;;;;;10.60;5.63;;;;;;;-0.53;73.95;100312.56;5046121;28;20040;-42
2023/01/28 06:39:33;;;;;;;10.30;5.05;;;;;;;-0.70;73.74;100282.38;5046063;28;20061;-42
2023/01/28 06:41:59;;;;;;;8.55;3.83;;;;;;;-0.56;73.85;100320.13;5030275;28;20082;-43
2023/01/28 06:44:25;;;;;;;10.57;5.20;;;;;;;-0.73;73.74;100297.66;5023051;28;20036;-42
2023/01/28 06:46:51;;;;;;;8.27;3.85;;;;;;;-0.55;73.79;100326.09;5044048;28;20049;-41
2023/01/28 06:49:17;;;;;;;12.55;4.47;;;;;;;-0.68;73.44;100298.59;5072205;28;20090;-41
2023/01/28 06:51:43;;;;;;;9.25;4.43;;;;;;;-0.53;73.75;100325.31;5067423;28;20040;-43
2023/01/28 06:54:09;;;;;;;9.68;4.47;;;;;;;-0.52;73.24;100329.56;5083077;28;20105;-42
2023/01/28 06:56:35;;;;;;;11.25;4.30;;;;;;;-0.53;73.15;100332.97;5083431;28;20480;-41
2023/01/28 06:59:00;;;;;;;8.70;4.72;;;;;;;-0.69;73.41;100304.53;5083735;28;20032;-40
2023/01/28 07:01:26;;;;;;;8.30;4.15;;;;;;;-0.55;72.98;100332.06;5085628;28;20040;-39
2023/01/28 07:03:52;;;;;;;10.73;4.53;;;;;;;-0.54;73.50;100331.25;5079631;28;20121;-41
2023/01/28 07:06:18;;;;;;;10.55;5.10;;;;;;;-0.54;73.11;100325.28;5082458;28;20427;-41
2023/01/28 07:08:44;;;;;;;10.48;5.88;;;;;;;-0.51;73.01;100331.31;5075347;28;20036;-41
2023/01/28 07:11:10;;;;;;;10.77;5.30;;;;;;;-0.67;73.05;100295.19;5071509;28;20048;-42
2023/01/28 07:13:36;;;;;;;9.65;4.80;;;;;;;-0.48;73.02;100323.72;5086774;28;20040;-41
2023/01/28 07:16:02;;;;;;;10.60;5.05;;;;;;;-0.44;72.61;100329.75;5080759;28;20487;-43
2023/01/28 07:18:29;;;;;;;9.63;4.80;;;;;;;-0.42;72.67;100322.97;5085494;28;20780;-41
2023/01/28 07:20:55;;;;;;;12.15;5.03;;;;;;;-0.41;72.83;100324.69;5080535;28;20060;-40
2023/01/28 07:23:21;;;;;;;13.75;6.47;;;;;;;-0.34;72.82;100330.78;5086881;28;20066;-40
2023/01/28 07:25:47;;;;;;;12.05;5.45;;;;;;;-0.32;72.43;100324.88;5087343;28;20036;-41
2023/01/28 07:28:13;;;;;;;11.77;5.80;;;;;;;-0.31;72.36;100325.72;5085338;28;20032;-41
2023/01/28 07:30:39;;;;;;;12.95;5.80;;;;;;;-0.32;72.31;100322.31;5087025;28;20043;-42
2023/01/28 07:33:04;;;;;;;15.88;6.85;;;;;;;-0.27;72.28;100323.28;5085562;28;20372;-42
2023/01/28 07:35:31;;;;;;;13.20;6.35;;;;;;;-0.25;71.98;100325.84;5084109;28;20504;-44
2023/01/28 07:37:58;;;;;;;16.08;7.25;;;;;;;-0.25;72.05;100324.16;5085906;28;20043;-44
2023/01/28 07:40:25;;;;;;;15.60;7.45;;;;;;;-0.28;71.83;100323.25;5069269;28;20107;-42
2023/01/28 07:42:52;;;;;;;21.00;8.20;;;;;;;-0.35;71.73;100322.25;5075726;28;20036;-42
2023/01/28 07:45:20;;;;;;;;;;;;;;;-0.31;71.89;100331.69;5083979;28;20029;-42
2023/01/28 07:47:56;;;;;;;19.20;7.75;;;;;;;-0.37;71.65;100325.63;5077175;28;19923;-42
2023/01/28 07:50:23;;;;;;;14.38;6.78;;;;;;;-0.40;71.55;100330.66;5084605;28;20046;-41
2023/01/28 07:52:49;;;;;;;15.43;7.22;;;;;;;-0.42;71.48;100325.53;5088142;28;20065;-42
2023/01/28 07:55:15;;;;;;;16.10;7.68;;;;;;;-0.42;71.44;100333.19;5090616;28;20048;-41
2023/01/28 07:57:55;;;;;;;15.55;7.65;;;;;;;-0.44;71.39;100329.75;5088959;28;20044;-41
2023/01/28 08:00:23;;;;;;;15.98;6.93;;;;;;;-0.47;71.51;100327.97;5070040;28;20256;-43
2023/01/28 08:02:49;;;;;;;19.27;7.47;;;;;;;-0.43;71.36;100326.38;5081647;28;20046;-41
2023/01/28 08:05:20;;;;;;;18.55;7.03;;;;;;;-0.39;71.52;100324.72;5089668;28;20055;-40
2023/01/28 08:07:47;;;;;;;15.10;6.63;;;;;;;-0.36;71.18;100317.97;5072389;28;20558;-41
2023/01/28 08:10:16;;;;;;;11.15;5.95;;;;;;;-0.29;71.21;100322.38;5071613;28;20047;-41
2023/01/28 08:12:59;;;;;;;13.98;7.00;;;;;;;-0.67;70.95;100262.00;5056980;28;20443;-42
2023/01/28 08:15:25;;;;;;;15.63;6.90;;;;;;;-0.28;70.48;100326.66;5086089;28;20036;-41
2023/01/28 08:17:56;;;;;;;15.15;7.38;;;;;;;-0.30;70.58;100324.88;5092451;28;20077;-41
2023/01/28 08:20:23;;;;;;;20.98;8.57;;;;;;;-0.28;70.35;100325.78;5088685;28;20036;-43
2023/01/28 08:22:48;;;;;;;14.63;6.88;;;;;;;-0.26;70.31;100324.13;5071668;28;20044;-42
2023/01/28 08:25:14;;;;;;;18.23;8.07;;;;;;;-0.22;70.27;100329.34;5091266;28;20117;-43
2023/01/28 08:27:40;;;;;;;18.65;8.15;;;;;;;-0.16;70.00;100316.66;5091107;28;20408;-42
2023/01/28 08:30:08;;;;;;;13.70;7.65;;;;;;;-0.14;70.41;100319.25;5087765;28;20044;-41
2023/01/28 08:32:34;;;;;;;16.70;8.18;;;;;;;-0.17;70.24;100317.50;5089812;28;20047;-43
2023/01/28 08:35:00;;;;;;;13.95;7.82;;;;;;;-0.13;69.99;100319.28;5088265;28;20063;-41
2023/01/28 08:37:26;;;;;;;17.02;7.88;;;;;;;-0.09;69.87;100325.31;5070317;28;20234;-42
2023/01/28 08:39:52;;;;;;;17.70;8.43;;;;;;;-0.04;69.96;100313.47;5089153;28;20201;-42
2023/01/28 08:42:18;;;;;;;21.05;8.43;;;;;;;-0.02;69.57;100312.69;5084846;28;20567;-42
2023/01/28 08:44:44;;;;;;;17.33;8.13;;;;;;;-0.02;69.48;100309.25;5076264;28;20135;-41
2023/01/28 08:47:10;;;;;;;16.08;7.57;;;;;;;0.03;69.24;100310.19;5089319;28;20451;-41
2023/01/28 08:49:36;;;;;;;22.58;8.50;;;;;;;0.06;69.37;100307.69;5075800;28;20041;-41
2023/01/28 08:52:02;;;;;;;17.95;8.82;;;;;;;0.04;69.23;100309.38;5053081;28;20041;-43
2023/01/28 08:54:28;;;;;;;17.90;9.00;;;;;;;-0.07;68.95;100275.94;5085328;28;20084;-42
2023/01/28 08:56:54;;;;;;;21.98;8.93;;;;;;;0.16;68.91;100312.13;5084944;28;20135;-41
2023/01/28 08:59:20;;;;;;;19.13;8.15;;;;;;;0.19;68.70;100308.78;5077711;28;20078;-42
2023/01/28 09:01:45;;;;;;;19.38;8.45;;;;;;;0.24;68.85;100305.47;5090634;28;20051;-43
2023/01/28 09:04:11;;;;;;;15.95;7.97;;;;;;;0.31;68.74;100301.31;5089561;28;20035;-41
2023/01/28 09:06:37;;;;;;;20.65;7.95;;;;;;;0.08;68.45;100265.13;5090416;28;20039;-42
2023/01/28 09:09:03;;;;;;;15.77;7.75;;;;;;;0.33;68.46;100297.94;5088412;28;20043;-42
2023/01/28 09:11:29;;;;;;;15.65;8.10;;;;;;;0.34;68.17;100288.56;5076060;28;20044;-42
2023/01/28 09:13:58;;;;;;;19.05;8.90;;;;;;;0.46;67.97;100295.59;5089129;28;20574;-41
2023/01/28 09:16:25;;;;;;;14.30;8.13;;;;;;;0.51;67.71;100299.94;5089324;28;20042;-42
2023/01/28 09:18:52;;;;;;;17.83;8.55;;;;;;;0.53;67.85;100300.81;5090257;28;20039;-44
2023/01/28 09:21:19;;;;;;;31.10;14.85;;;;;;;0.56;67.61;100302.56;5099450;28;20044;-42
2023/01/28 09:23:45;;;;;;;23.25;11.18;;;;;;;0.56;67.09;100297.44;5089228;28;20533;-41
2023/01/28 09:26:11;;;;;;;17.55;9.40;;;;;;;0.57;67.23;100306.84;5086241;28;20047;-42
2023/01/28 09:28:38;;;;;;;20.98;9.40;;;;;;;0.40;66.92;100266.53;5090125;28;20423;-44
2023/01/28 09:31:06;;;;;;;16.85;8.75;;;;;;;0.60;67.32;100294.97;5091020;28;20546;-43
2023/01/28 09:33:33;;;;;;;18.35;9.48;;;;;;;0.60;66.98;100292.41;5090591;28;20047;-44
2023/01/28 09:36:00;;;;;;;23.98;10.45;;;;;;;0.64;67.03;100290.75;5090204;28;20036;-41
2023/01/28 09:38:26;;;;;;;22.38;10.80;;;;;;;0.66;66.95;100294.19;5090750;28;20036;-42
2023/01/28 09:40:54;;;;;;;20.63;10.88;;;;;;;0.67;66.42;100286.56;5084948;28;20040;-41
2023/01/28 09:43:20;;;;;;;23.30;9.20;;;;;;;0.72;66.85;100284.06;5085382;28;20557;-42
2023/01/28 09:45:47;;;;;;;16.13;8.20;;;;;;;0.73;66.77;100289.16;5080989;28;20488;-42
2023/01/28 09:48:20;;;;;;;13.18;7.50;;;;;;;0.73;66.56;100270.44;5082876;28;20096;-42
2023/01/28 09:50:50;;;;;;;28.08;11.27;;;;;;;0.62;66.49;100249.81;5071384;28;20575;-45
2023/01/28 09:53:27;;;;;;;22.77;10.82;;;;;;;0.81;66.29;100290.16;5087702;28;20039;-43
2023/01/28 09:56:12;;;;;;;22.88;10.68;;;;;;;0.80;66.60;100277.34;5077104;28;20036;-47
2023/01/28 09:58:38;;;;;;;23.27;12.07;;;;;;;0.79;66.50;100278.16;5086957;28;20064;-46
2023/01/28 10:01:24;;;;;;;27.80;12.48;;;;;;;0.48;65.82;100230.81;5087894;28;20062;-47
2023/01/28 10:04:29;;;;;;;19.73;10.77;;;;;;;0.67;66.07;100268.63;5070926;28;20135;-52
2023/01/28 10:07:45;;;;;;;22.60;10.85;;;;;;;0.77;66.33;100279.88;5056239;28;20220;-49
2023/01/28 10:10:12;;;;;;;27.00;11.52;;;;;;;0.74;65.62;100277.25;5030908;28;20036;-51
2023/01/28 10:12:49;;;;;;;24.25;11.50;;;;;;;0.72;65.93;100274.69;5037286;28;20074;-48
2023/01/28 10:15:43;;;;;;;20.63;10.05;;;;;;;0.73;66.26;100267.88;5067769;28;20435;-45
2023/01/28 10:18:11;;;;;;;20.98;10.95;;;;;;;0.74;65.85;100274.69;5084932;28;20059;-49
2023/01/28 10:20:54;;;;;;;23.48;11.18;;;;;;;0.71;66.22;100269.53;5089260;28;20047;-47
2023/01/28 10:23:30;;;;;;;22.70;10.68;;;;;;;0.74;65.82;100254.22;5087733;28;20506;-46
2023/01/28 10:25:58;;;;;;;17.95;9.10;;;;;;;0.58;65.84;100234.34;5087128;28;20044;-44
2023/01/28 10:28:26;;;;;;;20.23;8.77;;;;;;;0.75;66.34;100254.25;5087883;28;20118;-45
2023/01/28 10:30:52;;;;;;;18.92;8.70;;;;;;;0.73;66.32;100247.41;5086912;28;20036;-43
2023/01/28 10:33:36;;;;;;;22.55;9.45;;;;;;;0.62;66.03;100231.03;5088310;28;20076;-43
2023/01/28 10:36:02;;;;;;;20.58;10.77;;;;;;;0.72;65.97;100250.78;5085246;28;20089;-44
2023/01/28 10:38:29;;;;;;;17.52;8.73;;;;;;;0.75;66.08;100250.81;5074709;28;20051;-43
2023/01/28 10:41:00;;;;;;;16.85;9.07;;;;;;;0.74;66.04;100244.84;5065995;28;20047;-44
2023/01/28 10:43:29;;;;;;;17.73;9.30;;;;;;;0.76;65.84;100245.72;5068671;28;20042;-45
2023/01/28 10:46:32;;;;;;;16.33;8.38;;;;;;;0.77;65.89;100244.91;5081892;28;20048;-44
2023/01/28 10:49:07;;;;;;;17.50;8.60;;;;;;;0.74;65.69;100243.97;5068047;28;20693;-42
2023/01/28 10:51:36;;;;;;;17.35;9.40;;;;;;;0.73;65.51;100239.72;5068659;28;20036;-44
2023/01/28 10:54:02;;;;;;;19.97;9.37;;;;;;;0.73;65.29;100229.50;5067477;28;20063;-45
2023/01/28 10:56:34;;;;;;;16.88;8.85;;;;;;;0.76;65.35;100239.75;5054467;28;20385;-44
2023/01/28 10:59:19;;;;;;;21.15;9.32;;;;;;;0.79;65.08;100239.78;5069819;28;20040;-45
2023/01/28 11:01:52;;;;;;;21.10;10.77;;;;;;;0.80;65.42;100234.69;5068651;28;20051;-43
2023/01/28 11:04:29;;;;;;;23.55;11.18;;;;;;;0.83;65.01;100229.63;5081223;28;20158;-43
2023/01/28 11:07:00;;;;;;;21.77;11.20;;;;;;;0.87;65.26;100227.97;5088619;28;20160;-44
2023/01/28 11:09:30;;;;;;;22.65;10.65;;;;;;;0.91;65.18;100228.84;5070590;28;20035;-44
2023/01/28 11:12:10;;;;;;;22.45;9.90;;;;;;;0.99;65.39;100230.69;5083254;28;20052;-42
2023/01/28 11:14:35;;;;;;;21.58;10.55;;;;;;;0.81;65.11;100195.47;5084186;28;20044;-43
2023/01/28 11:17:01;;;;;;;21.17;10.38;;;;;;;1.05;64.87;100225.63;5067084;28;20036;-44
2023/01/28 11:19:33;;;;;;;19.58;10.15;;;;;;;1.06;64.71;100219.66;5068621;28;20047;-45
2023/01/28 11:21:59;;;;;;;20.10;9.77;;;;;;;1.07;64.85;100218.84;5061790;28;20891;-43
2023/01/28 11:24:29;;;;;;;21.65;10.75;;;;;;;1.08;64.92;100224.81;5088699;28;20086;-44
2023/01/28 11:26:56;;;;;;;19.25;10.07;;;;;;;1.11;64.52;100206.91;5084472;28;20111;-43
2023/01/28 11:29:33;;;;;;;22.77;11.05;;;;;;;1.13;64.54;100208.66;5071014;28;20574;-43
2023/01/28 11:31:59;;;;;;;27.00;12.23;;;;;;;1.15;64.21;100208.69;5072545;28;20484;-45
2023/01/28 11:34:28;;;;;;;22.30;10.48;;;;;;;1.18;64.55;100204.47;5071204;28;20040;-45
2023/01/28 11:37:15;;;;;;;20.30;10.65;;;;;;;1.18;64.65;100206.16;5072402;28;20162;-44
2023/01/28 11:39:41;;;;;;;18.20;8.90;;;;;;;1.15;64.21;100199.28;5087566;28;20081;-43
2023/01/28 11:42:12;;;;;;;20.15;10.15;;;;;;;1.18;64.14;100195.91;5088403;28;20040;-44
2023/01/28 11:44:38;;;;;;;20.55;9.82;;;;;;;1.18;64.39;100193.34;5088192;28;20094;-44
2023/01/28 11:47:30;;;;;;;18.88;9.82;;;;;;;1.13;64.20;100187.31;5054042;28;20512;-44
2023/01/28 11:50:16;;;;;;;18.88;10.15;;;;;;;1.12;64.15;100183.03;5070777;28;20040;-43
2023/01/28 11:52:57;;;;;;;21.65;9.75;;;;;;;1.14;64.07;100181.38;5071045;28;20113;-44
2023/01/28 11:55:58;;;;;;;20.45;9.82;;;;;;;1.14;64.31;100182.22;5072055;28;20531;-43
2023/01/28 11:58:32;;;;;;;18.10;9.00;;;;;;;1.14;64.15;100176.25;5071609;28;20046;-44
2023/01/28 12:01:08;;;;;;;17.92;8.32;;;;;;;1.19;63.66;100177.16;5071821;28;20107;-45
2023/01/28 12:03:48;;;;;;;17.70;8.68;;;;;;;1.24;63.95;100178.94;5084716;28;20054;-43
2023/01/28 12:06:41;;;;;;;20.02;9.02;;;;;;;1.23;63.59;100179.75;5090794;28;20040;-44
2023/01/28 12:09:12;;;;;;;15.88;8.48;;;;;;;0.95;63.42;100141.00;5091903;28;20043;-44
2023/01/28 12:15:15;;;;;;;17.83;9.05;;;;;;;1.13;63.91;100166.84;5087747;28;20764;-43
2023/01/28 12:17:56;;;;;;;19.30;9.35;;;;;;;1.12;63.64;100170.25;5091639;28;20032;-44
2023/01/28 12:20:37;;;;;;;18.70;9.05;;;;;;;1.09;63.89;100175.34;5090416;28;20128;-44